Time;durP1;ratioP1;P1;durP2;ratioP2;P2;SDS_P1;SDS_P2;PMS_P1;PMS_P2;Temp;Humidity;BMP_temperature;BMP_pressure;BME280_temperature;BME280_humidity;BME280_pressure;Samples;Min_cycle;Max_cycle;Signal;HPM_P1;HPM_P2
2022/05/02 00:00:33;;;;;;;8.57;5.90;;;;;;;13.06;70.74;97328.84;4998178;28;20729;-93
2022/05/02 00:03:00;;;;;;;9.63;6.10;;;;;;;12.92;71.54;97317.47;4998620;28;20266;-94
2022/05/02 00:05:28;;;;;;;6.70;6.00;;;;;;;12.72;70.70;97284.66;5006295;28;20238;-94
2022/05/02 00:07:55;;;;;;;7.67;5.53;;;;;;;12.87;71.17;97304.69;5005708;28;20200;-93
2022/05/02 00:10:23;;;;;;;7.10;5.10;;;;;;;12.84;70.26;97304.84;4971107;28;20201;-95
2022/05/02 00:12:50;;;;;;;5.53;4.80;;;;;;;12.71;70.62;97279.56;4978143;28;20199;-94
2022/05/02 00:15:17;;;;;;;7.53;4.83;;;;;;;12.76;70.67;97296.59;4974398;28;20203;-94
2022/05/02 00:17:56;;;;;;;5.17;4.07;;;;;;;12.88;70.97;97327.16;4974234;28;20198;-92
2022/05/02 00:20:29;;;;;;;6.27;4.37;;;;;;;12.71;70.23;97303.78;4991183;28;20760;-93
2022/05/02 00:22:59;;;;;;;6.00;4.30;;;;;;;12.84;70.62;97327.38;5006607;28;20233;-93
2022/05/02 00:25:27;;;;;;;5.27;4.47;;;;;;;12.86;70.05;97333.34;4974453;28;20202;-96
2022/05/02 00:27:56;;;;;;;5.20;4.13;;;;;;;12.66;69.91;97279.78;4957913;28;20580;-92
2022/05/02 00:30:26;;;;;;;5.20;4.40;;;;;;;12.54;70.54;97280.41;4958071;28;20540;-94
2022/05/02 00:32:54;;;;;;;6.97;5.10;;;;;;;12.37;72.07;97303.75;4974289;28;20204;-93
2022/05/02 00:35:21;;;;;;;8.53;5.23;;;;;;;12.06;74.17;97321.69;4988971;28;20206;-94
2022/05/02 00:37:48;;;;;;;6.90;4.90;;;;;;;11.66;75.26;97289.00;4958650;28;20704;-93
2022/05/02 00:40:17;;;;;;;8.13;5.37;;;;;;;11.73;76.13;97318.06;4957262;28;20230;-95
2022/05/02 00:42:46;;;;;;;5.90;5.20;;;;;;;11.70;76.13;97321.69;4958400;28;20668;-95
2022/05/02 00:45:18;;;;;;;5.83;5.10;;;;;;;11.71;76.71;97310.38;4973656;28;20199;-94
2022/05/02 00:47:57;;;;;;;5.60;5.00;;;;;;;11.48;76.16;97276.00;4957476;28;20684;-94
2022/05/02 00:50:35;;;;;;;6.07;4.87;;;;;;;11.48;76.58;97269.88;4988095;28;20203;-94
2022/05/02 00:53:04;;;;;;;5.70;5.10;;;;;;;11.52;76.25;97264.56;4956741;28;20226;-92
2022/05/02 00:55:32;;;;;;;5.80;5.03;;;;;;;11.76;75.58;97289.41;4996105;28;20192;-94
2022/05/02 00:58:01;;;;;;;7.27;4.90;;;;;;;11.77;75.18;97268.56;4990120;28;20279;-93
2022/05/02 01:00:31;;;;;;;9.83;5.47;;;;;;;11.88;74.47;97247.31;4982983;28;20244;-91
2022/05/02 01:03:00;;;;;;;7.53;5.17;;;;;;;11.96;74.17;97242.59;4961584;28;20709;-93
2022/05/02 01:05:28;;;;;;;7.10;5.33;;;;;;;12.37;73.53;97298.56;4959112;28;20203;-92
2022/05/02 01:07:56;;;;;;;6.03;4.63;;;;;;;12.37;72.72;97272.59;4990331;28;20203;-94
2022/05/02 01:10:26;;;;;;;6.07;4.93;;;;;;;12.15;73.25;97254.63;4957514;28;20209;-94
2022/05/02 01:12:53;;;;;;;5.93;5.20;;;;;;;11.96;73.05;97240.84;4957848;28;20293;-95
2022/05/02 01:15:20;;;;;;;7.87;5.27;;;;;;;11.60;73.86;97213.19;4988785;28;20204;-92
2022/05/02 01:17:48;;;;;;;8.43;6.10;;;;;;;11.48;74.79;97211.16;4957110;28;20202;-92
2022/05/02 01:20:16;;;;;;;7.27;5.00;;;;;;;11.40;74.36;97209.75;4973213;28;20224;-95
2022/05/02 01:22:43;;;;;;;6.27;4.67;;;;;;;11.71;76.47;97284.44;4989154;28;20230;-95
2022/05/02 01:25:11;;;;;;;6.63;5.43;;;;;;;11.05;75.50;97171.66;4991010;28;20208;-94
2022/05/02 01:27:43;;;;;;;5.87;5.13;;;;;;;11.83;75.63;97283.84;4974075;28;20300;-93
2022/05/02 01:30:11;;;;;;;7.20;5.53;;;;;;;11.63;74.93;97242.41;4990114;28;20194;-92
2022/05/02 01:32:38;;;;;;;5.93;4.67;;;;;;;11.31;75.94;97219.72;4957520;28;20193;-93
2022/05/02 01:35:06;;;;;;;6.63;5.77;;;;;;;11.72;75.82;97273.16;5005453;28;20198;-93
2022/05/02 01:37:33;;;;;;;7.97;5.10;;;;;;;11.47;74.80;97225.88;4989065;28;20200;-94
2022/05/02 01:40:03;;;;;;;5.87;5.17;;;;;;;11.56;75.27;97253.16;5006591;28;20232;-92
2022/05/02 01:42:31;;;;;;;5.97;5.07;;;;;;;11.42;76.04;97223.50;4958750;28;20297;-92
2022/05/02 01:44:58;;;;;;;8.37;5.73;;;;;;;11.27;75.53;97187.06;4993603;28;20295;-91
2022/05/02 01:47:25;;;;;;;8.47;5.17;;;;;;;11.54;75.25;97210.88;4992758;28;20216;-94
2022/05/02 01:49:53;;;;;;;7.13;5.20;;;;;;;11.34;76.29;97199.66;4974550;28;20196;-93
2022/05/02 01:52:21;;;;;;;6.83;4.87;;;;;;;11.88;75.28;97265.47;4974861;28;20198;-95
2022/05/02 01:54:48;;;;;;;6.90;5.07;;;;;;;11.73;74.74;97222.94;4982756;28;20254;-94
2022/05/02 01:57:16;;;;;;;8.93;5.90;;;;;;;11.68;75.23;97237.88;4978016;28;20675;-93
2022/05/02 01:59:43;;;;;;;6.57;5.90;;;;;;;11.66;75.81;97241.44;4973631;28;20652;-94
2022/05/02 02:02:12;;;;;;;6.37;5.40;;;;;;;11.20;75.52;97183.06;4973678;28;20571;-92
2022/05/02 02:07:25;;;;;;;8.50;5.87;;;;;;;11.11;75.44;97184.31;4976640;28;20233;-96
2022/05/02 02:09:53;;;;;;;6.13;5.33;;;;;;;11.23;76.22;97222.66;4993574;28;20766;-95
2022/05/02 02:12:20;;;;;;;6.17;5.43;;;;;;;10.67;77.87;97203.63;4977019;28;20193;-93
2022/05/02 02:14:47;;;;;;;7.53;5.87;;;;;;;10.89;77.99;97258.75;4977179;28;20244;-94
2022/05/02 02:17:15;;;;;;;8.63;5.77;;;;;;;10.42;78.96;97216.78;4977647;28;20216;-94
2022/05/02 02:19:42;;;;;;;7.37;5.50;;;;;;;10.66;79.27;97243.34;4960627;28;20648;-94
2022/05/02 02:22:18;;;;;;;7.83;6.23;;;;;;;10.26;79.81;97214.88;4994345;28;20191;-94
2022/05/02 02:24:47;;;;;;;7.90;6.07;;;;;;;9.99;79.94;97184.94;4961193;28;20205;-94
2022/05/02 02:27:16;;;;;;;7.20;5.83;;;;;;;9.94;80.14;97197.19;4993070;28;20208;-94
2022/05/02 02:29:43;;;;;;;10.90;6.53;;;;;;;10.04;80.86;97238.16;4992817;28;20192;-94
2022/05/02 02:32:10;;;;;;;11.50;8.40;;;;;;;9.58;81.54;97166.75;4993022;28;20204;-93
2022/05/02 02:34:38;;;;;;;12.37;9.90;;;;;;;9.71;81.30;97191.22;4993056;28;20200;-92
2022/05/02 02:37:05;;;;;;;15.83;11.17;;;;;;;9.92;80.99;97199.00;4975925;28;20583;-92
2022/05/02 02:39:32;;;;;;;14.23;11.90;;;;;;;9.98;80.20;97188.41;4976555;28;20234;-93
2022/05/02 02:42:01;;;;;;;14.73;11.43;;;;;;;9.81;80.52;97147.72;4992208;28;20699;-92
2022/05/02 02:44:28;;;;;;;12.27;9.67;;;;;;;9.72;80.70;97145.53;4993365;28;20192;-94
2022/05/02 02:46:55;;;;;;;12.30;9.07;;;;;;;10.06;80.58;97226.00;4960149;28;20201;-93
2022/05/02 02:49:22;;;;;;;12.77;9.83;;;;;;;9.52;79.64;97133.38;4976223;28;20251;-91
2022/05/02 02:51:49;;;;;;;12.67;9.60;;;;;;;9.43;79.49;97123.44;4976908;28;20192;-94
2022/05/02 02:54:17;;;;;;;11.50;9.43;;;;;;;9.51;79.25;97105.88;4992576;28;20226;-95
2022/05/02 02:56:48;;;;;;;13.00;8.87;;;;;;;9.57;79.33;97108.22;4976683;28;20199;-93
2022/05/02 02:59:15;;;;;;;24.63;18.47;;;;;;;9.67;77.92;97099.16;4991735;28;20733;-93
2022/05/02 03:01:43;;;;;;;19.97;14.70;;;;;;;10.20;77.78;97171.16;4977772;28;20291;-94
2022/05/02 03:06:58;;;;;;;11.63;8.70;;;;;;;10.40;76.42;97186.66;4976949;28;20678;-92
2022/05/02 03:09:25;;;;;;;11.47;8.27;;;;;;;10.19;76.33;97154.78;4976367;28;20211;-93
2022/05/02 03:11:52;;;;;;;12.60;9.10;;;;;;;10.08;76.02;97133.63;4944730;28;20210;-92
2022/05/02 03:14:20;;;;;;;13.17;8.40;;;;;;;10.14;76.00;97142.94;4994484;28;20214;-92
2022/05/02 03:16:47;;;;;;;9.80;7.70;;;;;;;10.19;76.31;97156.50;4975629;28;20200;-94
2022/05/02 03:19:15;;;;;;;10.67;7.90;;;;;;;10.37;75.41;97168.66;4961437;28;20208;-93
2022/05/02 03:21:42;;;;;;;12.80;7.97;;;;;;;10.19;75.43;97148.75;4976977;28;20223;-94
2022/05/02 03:24:11;;;;;;;11.07;8.97;;;;;;;9.93;75.46;97123.97;4976131;28;20239;-92
2022/05/02 03:26:42;;;;;;;11.23;8.93;;;;;;;9.80;76.22;97113.28;4980857;28;20668;-91
2022/05/02 03:29:10;;;;;;;11.33;8.90;;;;;;;10.15;76.73;97180.84;4977040;28;20224;-95
2022/05/02 03:31:37;;;;;;;14.90;9.43;;;;;;;10.08;75.07;97135.38;4960827;28;20290;-94
2022/05/02 03:34:05;;;;;;;11.67;8.47;;;;;;;10.48;75.66;97226.00;4959717;28;20196;-94
2022/05/02 03:36:35;;;;;;;12.73;8.07;;;;;;;10.74;75.30;97217.97;4977765;28;20264;-93
2022/05/02 03:39:03;;;;;;;13.67;7.60;;;;;;;11.04;74.43;97229.59;4961520;28;20200;-93
2022/05/02 03:41:31;;;;;;;8.27;6.57;;;;;;;10.80;74.05;97159.88;4958040;28;20637;-95
2022/05/02 03:43:58;;;;;;;10.97;7.20;;;;;;;10.73;72.79;97137.75;4976248;28;20200;-93
2022/05/02 03:46:25;;;;;;;14.50;7.60;;;;;;;11.04;72.07;97164.81;4976480;28;20200;-93
2022/05/02 03:48:54;;;;;;;9.70;6.33;;;;;;;11.51;71.54;97221.38;4994809;28;20264;-91
2022/05/02 03:51:21;;;;;;;12.43;6.43;;;;;;;11.54;70.44;97174.56;4980267;28;20205;-92
2022/05/02 03:53:48;;;;;;;10.57;6.73;;;;;;;11.08;71.27;97155.97;4978881;28;20202;-95
2022/05/02 03:56:15;;;;;;;8.53;6.80;;;;;;;11.58;70.63;97197.66;5007401;28;20202;-93
2022/05/02 03:58:42;;;;;;;9.37;7.07;;;;;;;11.44;70.03;97185.38;4998576;28;20219;-91
2022/05/02 04:01:09;;;;;;;10.97;7.73;;;;;;;11.18;69.56;97157.22;4985764;28;20227;-94
2022/05/02 04:03:38;;;;;;;10.43;7.10;;;;;;;11.50;70.24;97198.97;5010444;28;20196;-92
2022/05/02 04:06:05;;;;;;;12.63;7.47;;;;;;;11.48;69.81;97195.59;4976364;28;20197;-93
2022/05/02 04:08:32;;;;;;;12.87;7.30;;;;;;;11.20;68.78;97154.56;4959678;28;20227;-92
2022/05/02 04:11:03;;;;;;;6.50;5.67;;;;;;;11.56;68.57;97222.84;4991999;28;20680;-93
2022/05/02 04:13:30;;;;;;;7.80;5.80;;;;;;;11.00;68.86;97157.22;4975143;28;20211;-94
2022/05/02 04:15:58;;;;;;;10.53;6.73;;;;;;;11.18;69.30;97223.78;5008725;28;20204;-95
2022/05/02 04:18:26;;;;;;;10.43;6.70;;;;;;;10.81;70.05;97196.06;4995277;28;20196;-94
2022/05/02 04:20:55;;;;;;;8.30;6.23;;;;;;;10.57;70.45;97194.56;4965487;28;20223;-93
2022/05/02 04:23:22;;;;;;;7.77;6.13;;;;;;;10.61;71.13;97215.06;4994550;28;20287;-94
2022/05/02 04:25:50;;;;;;;8.23;5.43;;;;;;;10.68;70.40;97199.25;4992553;28;20661;-95
2022/05/02 04:28:18;;;;;;;9.43;6.40;;;;;;;11.03;69.50;97224.44;5010719;28;20231;-93
2022/05/02 04:30:47;;;;;;;11.37;7.20;;;;;;;10.95;69.04;97154.84;4997566;28;20192;-94
2022/05/02 04:33:15;;;;;;;13.10;8.47;;;;;;;11.61;68.18;97187.16;5012460;28;20221;-93
2022/05/02 04:35:42;;;;;;;11.53;6.77;;;;;;;12.19;67.52;97217.22;4995933;28;20257;-92
2022/05/02 04:38:10;;;;;;;11.43;7.67;;;;;;;12.52;66.80;97173.13;4982052;28;20304;-89
2022/05/02 04:40:40;;;;;;;10.17;5.90;;;;;;;12.36;66.20;97135.03;4992727;28;20228;-92
2022/05/02 04:43:08;;;;;;;8.97;5.87;;;;;;;12.71;65.46;97168.66;4953421;28;20322;-93
2022/05/02 04:45:35;;;;;;;6.37;5.27;;;;;;;12.90;65.27;97182.34;4974568;28;20251;-93
2022/05/02 04:48:43;;;;;;;6.33;5.60;;;;;;;12.76;66.27;97204.78;4958765;28;20320;-93
2022/05/02 04:52:04;;;;;;;6.90;5.50;;;;;;;12.99;67.15;97179.28;4976557;28;20286;-93
2022/05/02 04:55:24;;;;;;;6.97;4.90;;;;;;;13.27;67.25;97201.25;4974423;28;20680;-93
2022/05/02 04:58:45;;;;;;;7.50;4.57;;;;;;;13.50;65.66;97195.63;4942903;28;20206;-95
2022/05/02 05:02:06;;;;;;;9.13;5.40;;;;;;;13.94;64.35;97209.63;4975306;28;20235;-94
2022/05/02 05:05:28;;;;;;;5.20;4.63;;;;;;;13.76;64.94;97197.63;4973501;28;20195;-92
2022/05/02 05:08:54;;;;;;;6.77;4.77;;;;;;;14.02;65.29;97188.34;4962907;28;20229;-93
2022/05/02 05:11:46;;;;;;;6.63;5.00;;;;;;;13.91;64.11;97191.56;4989468;28;20361;-91
2022/05/02 05:18:08;;;;;;;9.63;5.90;;;;;;;13.92;65.47;97167.22;4978030;28;20235;-93
2022/05/02 05:21:15;;;;;;;12.63;5.90;;;;;;;14.49;62.61;97192.53;4959885;28;20226;-93
2022/05/02 05:24:29;;;;;;;8.07;5.30;;;;;;;14.87;61.72;97190.25;4978476;28;20353;-92
2022/05/02 05:28:06;;;;;;;7.40;6.30;;;;;;;15.08;60.98;97188.09;4990635;28;20273;-90
2022/05/02 05:31:28;;;;;;;8.20;5.80;;;;;;;15.26;58.78;97151.28;4974679;28;20267;-91
2022/05/02 05:34:21;;;;;;;6.87;5.20;;;;;;;15.54;59.35;97200.00;4974260;28;20193;-93
2022/05/02 05:37:32;;;;;;;6.43;5.00;;;;;;;15.75;58.83;97201.25;4972113;28;20204;-96
2022/05/02 05:40:56;;;;;;;9.43;5.00;;;;;;;15.60;58.62;97199.59;4976622;28;20241;-92
2022/05/02 05:44:25;;;;;;;5.47;4.67;;;;;;;15.40;58.67;97166.06;4996017;28;20192;-94
2022/05/02 05:47:47;;;;;;;7.13;5.53;;;;;;;15.45;58.58;97190.16;4977615;28;20204;-91
2022/05/02 05:51:11;;;;;;;9.10;6.93;;;;;;;15.61;57.90;97119.53;4971939;28;20197;-92
2022/05/02 05:54:21;;;;;;;8.30;5.03;;;;;;;16.38;56.80;97198.03;4995903;28;20256;-95
2022/05/02 05:57:17;;;;;;;7.87;4.40;;;;;;;16.53;56.20;97210.09;4962700;28;20193;-91
2022/05/02 06:00:06;;;;;;;5.93;4.73;;;;;;;16.59;56.04;97205.28;4978654;28;20216;-93
2022/05/02 06:03:07;;;;;;;7.07;5.47;;;;;;;16.52;55.47;97163.97;4992260;28;20181;-92
2022/05/02 06:05:48;;;;;;;11.63;4.77;;;;;;;16.74;55.98;97199.03;5007880;28;20252;-93
2022/05/02 06:08:19;;;;;;;8.50;6.57;;;;;;;16.90;55.39;97211.91;4992393;28;20280;-90
2022/05/02 06:10:51;;;;;;;6.97;4.47;;;;;;;16.75;56.11;97211.19;4987370;28;20200;-93
2022/05/02 06:13:45;;;;;;;7.50;5.10;;;;;;;16.19;56.34;97126.06;4997809;28;20189;-93
2022/05/02 06:19:15;;;;;;;9.57;4.63;;;;;;;16.69;55.42;97161.06;5011239;28;20192;-92
2022/05/02 06:21:46;;;;;;;6.10;4.33;;;;;;;16.67;55.35;97208.22;5011580;28;20253;-89
2022/05/02 06:24:14;;;;;;;7.13;4.20;;;;;;;16.99;54.73;97214.75;5011740;28;20231;-90
2022/05/02 06:26:44;;;;;;;9.03;4.77;;;;;;;16.95;53.92;97192.34;5004663;28;20196;-90
2022/05/02 06:29:12;;;;;;;8.70;4.47;;;;;;;17.02;52.70;97156.13;5007222;28;20194;-90
2022/05/02 06:31:45;;;;;;;6.03;3.63;;;;;;;17.42;52.39;97207.38;4984859;28;20194;-89
2022/05/02 06:34:18;;;;;;;6.20;3.50;;;;;;;17.56;51.46;97203.78;4981495;28;20211;-93
2022/05/02 06:36:59;;;;;;;4.93;3.50;;;;;;;17.40;50.38;97214.50;4996150;28;20200;-89
2022/05/02 06:39:45;;;;;;;3.87;3.37;;;;;;;16.91;52.23;97214.44;4996478;28;20211;-91
2022/05/02 06:42:50;;;;;;;10.67;5.60;;;;;;;17.22;51.96;97226.25;4997370;28;20313;-88
2022/05/02 06:45:43;;;;;;;7.27;4.33;;;;;;;17.47;51.04;97220.13;4992019;28;20858;-92
2022/05/02 06:48:36;;;;;;;4.60;3.47;;;;;;;17.46;50.69;97219.28;4955281;28;20303;-88
2022/05/02 06:51:15;;;;;;;4.47;3.50;;;;;;;16.74;51.76;97169.44;4944060;28;20218;-90
2022/05/02 06:54:07;;;;;;;6.30;3.80;;;;;;;17.06;50.87;97215.97;4964632;28;20208;-90
2022/05/02 06:56:51;;;;;;;5.03;3.30;;;;;;;17.38;50.46;97210.31;4966621;28;20792;-91
2022/05/02 06:59:46;;;;;;;5.70;3.07;;;;;;;17.08;49.14;97206.25;4971307;28;20198;-91
2022/05/02 07:02:37;;;;;;;5.37;3.70;;;;;;;17.34;50.35;97196.59;4968831;28;20234;-90
2022/05/02 07:05:27;;;;;;;6.43;4.07;;;;;;;17.35;50.96;97202.69;4957725;29;20217;-93
2022/05/02 07:08:10;;;;;;;5.30;3.90;;;;;;;17.17;50.06;97160.28;4963067;28;20267;-91
2022/05/02 07:11:03;;;;;;;3.73;2.97;;;;;;;17.00;49.77;97121.41;4958758;28;20190;-90
2022/05/02 07:13:58;;;;;;;7.63;3.33;;;;;;;17.44;49.91;97189.75;4961740;28;20297;-91
2022/05/02 07:16:30;;;;;;;3.90;3.33;;;;;;;16.87;49.29;97167.66;4962067;28;20184;-90
2022/05/02 07:19:29;;;;;;;6.10;3.77;;;;;;;17.24;49.00;97190.34;4986810;28;20204;-90
2022/05/02 07:22:22;;;;;;;5.47;3.57;;;;;;;17.15;49.90;97172.66;5014367;28;20213;-90
2022/05/02 07:25:16;;;;;;;9.50;6.27;;;;;;;16.97;50.08;97173.94;4995850;28;20204;-89
2022/05/02 07:27:55;;;;;;;5.67;4.07;;;;;;;16.96;50.32;97169.66;4993579;28;20198;-96
2022/05/02 07:30:24;;;;;;;4.50;3.70;;;;;;;17.35;49.61;97185.16;4991065;28;20299;-96
2022/05/02 07:32:53;;;;;;;6.53;3.90;;;;;;;17.55;49.34;97178.56;4989943;28;20202;-90
2022/05/02 07:35:22;;;;;;;4.73;3.40;;;;;;;16.44;51.14;97176.69;4990869;28;20190;-92
2022/05/02 07:37:50;;;;;;;4.93;3.70;;;;;;;16.69;51.66;97158.47;4990543;28;20180;-86
2022/05/02 07:40:21;;;;;;;6.77;3.10;;;;;;;16.88;50.77;97185.00;4984996;28;20204;-92
2022/05/02 07:42:53;;;;;;;5.20;3.80;;;;;;;17.12;50.26;97172.03;4989328;28;20223;-90
2022/05/02 07:45:28;;;;;;;5.67;3.70;;;;;;;16.96;51.01;97161.81;4988554;28;20244;-96
2022/05/02 07:48:00;;;;;;;6.67;3.50;;;;;;;17.36;50.16;97184.25;4984395;28;20213;-90
2022/05/02 07:50:29;;;;;;;5.03;2.80;;;;;;;17.20;49.68;97119.97;4985650;28;20233;-88
2022/05/02 07:52:59;;;;;;;5.20;3.20;;;;;;;17.47;49.28;97134.56;4978704;28;20281;-91
2022/05/02 07:55:30;;;;;;;5.83;3.70;;;;;;;17.63;48.89;97147.44;4976299;28;20234;-89
2022/05/02 07:58:00;;;;;;;3.60;2.97;;;;;;;17.27;49.56;97187.50;4979196;28;20218;-87
2022/05/02 08:00:30;;;;;;;3.73;3.00;;;;;;;16.90;50.15;97156.97;4987899;28;20197;-88
2022/05/02 08:03:04;;;;;;;8.03;3.87;;;;;;;16.67;50.79;97149.88;4993387;28;20220;-87
2022/05/02 08:05:33;;;;;;;5.43;3.17;;;;;;;16.39;52.22;97158.69;4984773;28;20673;-95
2022/05/02 08:08:23;;;;;;;6.17;3.43;;;;;;;16.43;50.86;97058.22;4964565;28;20264;-92
2022/05/02 08:11:13;;;;;;;6.80;4.03;;;;;;;17.36;50.53;97160.66;4979936;28;20293;-91
2022/05/02 08:14:07;;;;;;;6.60;3.23;;;;;;;16.48;52.13;97146.78;4976520;28;20224;-92
2022/05/02 08:16:41;;;;;;;8.30;4.03;;;;;;;16.41;52.30;97116.78;4976708;28;20201;-93
2022/05/02 08:19:20;;;;;;;4.67;3.47;;;;;;;17.14;51.11;97152.66;4979498;28;20192;-94
2022/05/02 08:27:15;;;;;;;6.13;3.67;;;;;;;17.26;50.26;97107.31;4979168;28;20228;-92
2022/05/02 08:28:02;;;;;;;15.47;5.30;;;;;;;17.13;51.01;97132.66;4978286;28;20216;-92
2022/05/02 08:30:38;;;;;;;9.23;4.63;;;;;;;16.48;51.59;97081.44;4977827;28;20204;-94
2022/05/02 08:33:07;;;;;;;4.83;3.07;;;;;;;16.38;52.25;97143.97;4984374;28;20224;-94
2022/05/02 08:36:01;;;;;;;7.13;4.00;;;;;;;16.20;52.92;97134.72;4966658;28;20208;-93
2022/05/02 08:38:44;;;;;;;3.47;2.93;;;;;;;16.19;52.72;97133.06;4985743;28;20186;-94
2022/05/02 08:42:04;;;;;;;5.47;4.23;;;;;;;16.24;52.84;97121.34;4984336;28;20224;-95
2022/05/02 08:45:10;;;;;;;13.03;6.53;;;;;;;16.48;52.89;97124.13;4973617;28;20261;-92
2022/05/02 08:48:28;;;;;;;7.27;4.00;;;;;;;16.58;51.90;97114.72;4972587;28;20182;-94
2022/05/02 08:51:20;;;;;;;5.40;3.87;;;;;;;16.44;52.38;97111.34;4988151;28;20192;-93
2022/05/02 08:54:25;;;;;;;6.40;3.90;;;;;;;16.57;51.34;97071.22;4970257;28;20197;-94
2022/05/02 08:57:15;;;;;;;7.60;4.20;;;;;;;17.05;51.43;97082.66;4943474;28;20193;-92
2022/05/02 08:59:54;;;;;;;6.30;3.63;;;;;;;16.93;51.12;97080.91;4962078;28;20217;-92
2022/05/02 09:02:52;;;;;;;6.67;4.30;;;;;;;16.62;51.65;97091.81;4945488;28;20257;-93
2022/05/02 09:05:48;;;;;;;8.73;3.30;;;;;;;16.67;50.71;97087.13;4947685;28;20225;-94
2022/05/02 09:08:55;;;;;;;10.47;4.33;;;;;;;16.71;51.53;97093.81;4997467;28;20239;-94
2022/05/02 09:11:37;;;;;;;8.60;4.33;;;;;;;16.18;51.71;97085.19;5010943;28;20371;-92
2022/05/02 09:14:19;;;;;;;12.63;6.03;;;;;;;16.57;51.65;97075.63;4976205;28;20198;-93
2022/05/02 09:16:55;;;;;;;10.77;6.17;;;;;;;16.54;51.40;97070.59;4978105;28;20197;-93
2022/05/02 09:19:46;;;;;;;13.20;4.97;;;;;;;16.47;51.18;97077.13;4986141;28;20731;-94
2022/05/02 09:23:02;;;;;;;10.43;5.13;;;;;;;16.55;50.23;97077.50;4988390;28;20231;-94
2022/05/02 09:26:05;;;;;;;11.80;5.03;;;;;;;16.69;50.88;97078.19;4985344;28;20196;-96
2022/05/02 09:28:55;;;;;;;7.40;4.43;;;;;;;16.73;50.76;97091.91;4980120;28;20234;-92
2022/05/02 09:31:44;;;;;;;5.73;3.50;;;;;;;16.95;49.98;97072.00;4996139;28;20850;-95
2022/05/02 09:34:42;;;;;;;6.63;3.97;;;;;;;16.90;49.61;97068.03;4965001;28;20218;-95
2022/05/02 09:37:36;;;;;;;3.37;3.07;;;;;;;16.75;50.05;97063.88;4978167;28;20197;-93
2022/05/02 09:40:22;;;;;;;6.10;3.27;;;;;;;16.51;49.63;96994.97;4978750;28;20599;-94
2022/05/02 09:49:33;;;;;;;4.60;3.93;;;;;;;16.63;48.70;97052.47;4962991;28;20229;-92
2022/05/02 09:49:39;;;;;;;5.23;3.93;;;;;;;16.47;50.39;97071.91;4958660;28;20197;-93
2022/05/02 09:52:11;;;;;;;5.50;3.13;;;;;;;16.68;49.18;97062.63;4976744;28;20710;-93
2022/05/02 09:58:34;;;;;;;7.57;3.43;;;;;;;16.76;49.06;97055.91;4992395;28;20375;-92
2022/05/02 10:01:16;;;;;;;8.37;3.37;;;;;;;16.98;47.64;97060.50;4981623;28;20201;-92
2022/05/02 10:04:11;;;;;;;8.03;3.37;;;;;;;16.96;46.69;97057.97;4980343;28;20240;-92
2022/05/02 10:06:38;;;;;;;6.63;3.70;;;;;;;17.24;46.58;97061.22;4988706;28;20215;-91
2022/05/02 10:09:33;;;;;;;5.70;2.90;;;;;;;17.09;45.61;97031.75;4991840;28;20661;-94
2022/05/02 10:12:07;;;;;;;5.73;3.10;;;;;;;16.78;45.68;97019.19;4978867;28;20200;-93
2022/05/02 10:14:44;;;;;;;4.63;3.07;;;;;;;16.96;45.82;97062.38;4977691;28;20204;-95
2022/05/02 10:17:13;;;;;;;4.27;3.47;;;;;;;17.10;45.06;97064.84;4979671;28;20197;-93
2022/05/02 10:20:18;;;;;;;4.67;2.67;;;;;;;16.64;46.12;97050.72;4966384;28;20211;-92
2022/05/02 10:23:25;;;;;;;8.63;4.00;;;;;;;16.60;45.98;97044.88;4975420;28;20301;-95
2022/05/02 10:29:42;;;;;;;5.37;3.50;;;;;;;16.99;46.11;97059.53;4958894;28;20190;-91
2022/05/02 10:32:35;;;;;;;5.90;3.17;;;;;;;16.43;46.74;97063.44;4973197;28;20267;-91
2022/05/02 10:35:10;;;;;;;7.90;3.37;;;;;;;15.95;47.46;97015.34;4974363;28;20214;-90
2022/05/02 10:37:42;;;;;;;6.00;3.37;;;;;;;15.97;46.70;96966.47;4981216;28;20212;-90
2022/05/02 10:40:37;;;;;;;4.23;3.60;;;;;;;16.09;46.31;96949.94;4995406;28;20196;-91
2022/05/02 10:43:09;;;;;;;5.33;3.40;;;;;;;16.79;46.29;97020.88;4978787;28;20231;-90
2022/05/02 10:45:41;;;;;;;5.43;3.30;;;;;;;16.83;45.73;97051.09;4990677;28;20232;-92
2022/05/02 10:48:18;;;;;;;3.07;2.57;;;;;;;16.62;44.15;97042.97;5002764;28;20231;-94
2022/05/02 10:51:20;;;;;;;5.87;2.80;;;;;;;16.42;44.83;97006.06;4995061;28;20238;-90
2022/05/02 10:54:15;;;;;;;5.07;3.13;;;;;;;16.55;45.23;97036.50;4983118;28;20675;-92
2022/05/02 10:56:53;;;;;;;5.03;3.03;;;;;;;16.67;44.71;96988.56;4999555;28;20221;-93
2022/05/02 10:59:31;;;;;;;4.13;2.80;;;;;;;16.85;45.09;96974.19;5027625;28;20191;-91
2022/05/02 11:02:23;;;;;;;4.00;2.80;;;;;;;17.07;43.97;97023.19;4997805;28;20213;-90
2022/05/02 11:05:08;;;;;;;7.33;3.10;;;;;;;16.67;44.50;96961.59;4974279;28;20200;-90
2022/05/02 11:07:58;;;;;;;2.77;2.57;;;;;;;17.08;44.30;97017.03;5001819;28;20767;-92
2022/05/02 11:10:30;;;;;;;3.97;3.13;;;;;;;16.91;44.97;96962.44;4991497;28;20197;-91
2022/05/02 11:13:11;;;;;;;3.87;2.87;;;;;;;17.35;44.82;96998.47;4990874;28;20196;-90
2022/05/02 11:15:53;;;;;;;4.20;3.37;;;;;;;16.97;44.53;96917.53;4989656;28;20212;-90
2022/05/02 11:21:47;;;;;;;3.83;2.93;;;;;;;17.16;41.84;96936.19;4994673;28;20218;-95
2022/05/02 11:24:46;;;;;;;4.20;2.40;;;;;;;16.86;42.59;96988.94;4959632;28;20280;-95
2022/05/02 11:27:47;;;;;;;6.63;2.80;;;;;;;17.12;41.40;97000.16;4979912;28;20189;-94
2022/05/02 11:30:22;;;;;;;4.83;2.83;;;;;;;17.29;41.61;96997.13;4948168;28;20209;-96
2022/05/02 11:33:04;;;;;;;3.47;2.30;;;;;;;17.18;41.86;96996.25;4980247;28;20290;-96
2022/05/02 11:35:33;;;;;;;3.33;2.77;;;;;;;17.00;42.29;96974.88;4996379;28;20202;-96
2022/05/02 11:38:19;;;;;;;3.00;2.20;;;;;;;17.36;42.43;96987.03;4951726;28;20580;-95
2022/05/02 11:40:51;;;;;;;4.73;3.00;;;;;;;17.68;42.03;96977.69;4974866;28;20209;-91
2022/05/02 11:43:23;;;;;;;4.83;2.70;;;;;;;17.74;41.08;96972.81;4973447;28;20221;-95
2022/05/02 11:46:22;;;;;;;3.40;2.60;;;;;;;17.91;40.75;96975.97;4973909;28;20302;-96
2022/05/02 11:49:12;;;;;;;5.43;2.93;;;;;;;18.17;38.70;96973.00;4963719;28;20302;-93
2022/05/02 11:51:50;;;;;;;5.13;2.77;;;;;;;18.38;38.92;96941.66;4976711;28;20216;-92
2022/05/02 11:54:42;;;;;;;5.50;2.90;;;;;;;18.39;39.73;96969.53;4977224;28;20240;-94
2022/05/02 11:57:27;;;;;;;2.67;2.37;;;;;;;18.32;40.28;96968.38;4995006;28;20202;-91
2022/05/02 12:00:06;;;;;;;4.40;2.27;;;;;;;18.08;40.02;96957.13;4963840;28;20204;-91
2022/05/02 12:02:59;;;;;;;3.40;2.53;;;;;;;17.95;40.68;96964.28;4960357;28;20820;-89
2022/05/02 12:05:31;;;;;;;4.47;2.37;;;;;;;17.74;41.12;96943.97;4957858;28;20205;-92
2022/05/02 12:08:03;;;;;;;8.63;2.83;;;;;;;17.33;41.06;96959.31;4988798;28;20260;-91
2022/05/02 12:10:39;;;;;;;4.63;2.37;;;;;;;16.62;40.83;96885.25;4999163;28;20227;-90
2022/05/02 12:13:12;;;;;;;4.37;2.47;;;;;;;17.01;40.30;96911.13;4984471;28;20198;-91
2022/05/02 12:16:00;;;;;;;4.67;2.63;;;;;;;17.29;40.28;96902.09;4997779;28;20193;-88
2022/05/02 12:18:42;;;;;;;3.33;2.77;;;;;;;17.57;39.84;96948.84;4977660;28;20264;-92
2022/05/02 12:21:31;;;;;;;3.53;2.63;;;;;;;17.65;39.98;96954.34;4986737;28;20194;-90
2022/05/02 12:24:05;;;;;;;4.63;2.70;;;;;;;17.77;39.54;96950.78;4983820;28;20228;-90
2022/05/02 12:26:33;;;;;;;3.10;2.30;;;;;;;17.47;40.22;96921.63;4997613;28;20215;-91
2022/05/02 12:29:11;;;;;;;5.03;2.70;;;;;;;17.44;40.51;96925.31;4976726;28;20193;-93
2022/05/02 12:31:43;;;;;;;7.20;3.70;;;;;;;17.06;40.79;96860.13;4997134;28;20251;-95
2022/05/02 12:34:13;;;;;;;4.77;3.10;;;;;;;17.69;41.68;96938.28;4962314;28;20214;-93
2022/05/02 12:36:43;;;;;;;3.30;2.57;;;;;;;17.69;41.47;96935.66;4978383;28;20633;-96
2022/05/02 12:39:23;;;;;;;2.93;2.27;;;;;;;17.56;41.32;96906.09;4961108;28;20268;-90
2022/05/02 12:42:18;;;;;;;5.53;3.00;;;;;;;17.64;41.00;96914.19;4957623;28;20240;-93
2022/05/02 12:45:03;;;;;;;3.77;2.50;;;;;;;17.31;41.41;96853.88;4993230;28;20256;-94
2022/05/02 12:47:41;;;;;;;5.83;2.57;;;;;;;17.13;42.14;96834.31;4990903;28;20201;-93
2022/05/02 12:50:17;;;;;;;6.50;2.97;;;;;;;17.48;42.52;96850.81;4982149;28;20227;-93
2022/05/02 12:52:55;;;;;;;4.47;2.87;;;;;;;17.71;42.87;96923.28;4988894;28;20281;-93
2022/05/02 12:55:34;;;;;;;5.63;3.40;;;;;;;17.80;42.55;96883.25;4988348;28;20759;-88
2022/05/02 13:02:20;;;;;;;8.10;3.60;;;;;;;18.20;41.45;96912.47;4970693;28;20225;-89